sensor_id;sensor_type;location;lat;lon;timestamp;P1;durP1;ratioP1;P2;durP2;ratioP2
47153;SDS011;32907;41.412;2.164;2023-05-02T00:02:24;7.03;;;4.15;;
47153;SDS011;32907;41.412;2.164;2023-05-02T00:04:52;7.18;;;3.75;;
47153;SDS011;32907;41.412;2.164;2023-05-02T00:07:20;6.93;;;4.13;;
47153;SDS011;32907;41.412;2.164;2023-05-02T00:09:48;5.97;;;3.20;;
47153;SDS011;32907;41.412;2.164;2023-05-02T00:12:15;6.90;;;3.25;;
47153;SDS011;32907;41.412;2.164;2023-05-02T00:14:43;5.10;;;3.05;;
47153;SDS011;32907;41.412;2.164;2023-05-02T00:17:17;8.48;;;3.25;;
47153;SDS011;32907;41.412;2.164;2023-05-02T00:19:46;9.40;;;3.58;;
47153;SDS011;32907;41.412;2.164;2023-05-02T00:22:14;6.47;;;2.63;;
47153;SDS011;32907;41.412;2.164;2023-05-02T00:24:42;5.88;;;2.50;;
47153;SDS011;32907;41.412;2.164;2023-05-02T00:27:10;5.60;;;3.08;;
47153;SDS011;32907;41.412;2.164;2023-05-02T00:29:38;5.70;;;2.40;;
47153;SDS011;32907;41.412;2.164;2023-05-02T00:32:07;5.85;;;2.97;;
47153;SDS011;32907;41.412;2.164;2023-05-02T00:34:35;4.90;;;2.53;;
47153;SDS011;32907;41.412;2.164;2023-05-02T00:37:03;5.00;;;2.47;;
47153;SDS011;32907;41.412;2.164;2023-05-02T00:39:30;5.30;;;2.80;;
47153;SDS011;32907;41.412;2.164;2023-05-02T00:42:00;4.65;;;2.38;;
47153;SDS011;32907;41.412;2.164;2023-05-02T00:44:28;5.35;;;2.70;;
47153;SDS011;32907;41.412;2.164;2023-05-02T00:46:56;6.88;;;2.88;;
47153;SDS011;32907;41.412;2.164;2023-05-02T00:49:24;8.73;;;3.50;;
47153;SDS011;32907;41.412;2.164;2023-05-02T00:51:53;12.88;;;3.78;;
47153;SDS011;32907;41.412;2.164;2023-05-02T00:54:21;7.13;;;3.20;;
47153;SDS011;32907;41.412;2.164;2023-05-02T00:56:49;7.65;;;3.35;;
47153;SDS011;32907;41.412;2.164;2023-05-02T00:59:17;6.85;;;3.20;;
47153;SDS011;32907;41.412;2.164;2023-05-02T01:01:52;9.57;;;3.50;;
47153;SDS011;32907;41.412;2.164;2023-05-02T01:04:53;7.47;;;3.35;;
47153;SDS011;32907;41.412;2.164;2023-05-02T01:12:41;9.33;;;3.20;;
47153;SDS011;32907;41.412;2.164;2023-05-02T01:15:19;6.22;;;3.03;;
47153;SDS011;32907;41.412;2.164;2023-05-02T01:17:49;8.48;;;3.72;;
47153;SDS011;32907;41.412;2.164;2023-05-02T01:20:22;5.43;;;2.90;;
47153;SDS011;32907;41.412;2.164;2023-05-02T01:22:57;6.22;;;3.60;;
47153;SDS011;32907;41.412;2.164;2023-05-02T01:28:26;4.78;;;2.88;;
47153;SDS011;32907;41.412;2.164;2023-05-02T01:31:01;7.30;;;3.80;;
47153;SDS011;32907;41.412;2.164;2023-05-02T01:33:30;8.23;;;3.75;;
47153;SDS011;32907;41.412;2.164;2023-05-02T01:36:02;5.93;;;3.53;;
47153;SDS011;32907;41.412;2.164;2023-05-02T01:38:30;6.68;;;3.33;;
47153;SDS011;32907;41.412;2.164;2023-05-02T01:41:01;7.75;;;3.38;;
47153;SDS011;32907;41.412;2.164;2023-05-02T01:43:31;5.00;;;2.72;;
47153;SDS011;32907;41.412;2.164;2023-05-02T01:46:01;6.82;;;3.55;;
47153;SDS011;32907;41.412;2.164;2023-05-02T01:48:31;6.47;;;3.45;;
47153;SDS011;32907;41.412;2.164;2023-05-02T01:50:59;7.20;;;3.72;;
47153;SDS011;32907;41.412;2.164;2023-05-02T01:53:29;5.72;;;3.25;;
47153;SDS011;32907;41.412;2.164;2023-05-02T01:56:00;5.15;;;3.38;;
47153;SDS011;32907;41.412;2.164;2023-05-02T01:58:30;5.88;;;3.38;;
47153;SDS011;32907;41.412;2.164;2023-05-02T02:01:00;5.10;;;3.58;;
47153;SDS011;32907;41.412;2.164;2023-05-02T02:03:31;4.78;;;3.20;;
47153;SDS011;32907;41.412;2.164;2023-05-02T02:06:00;7.00;;;3.75;;
47153;SDS011;32907;41.412;2.164;2023-05-02T02:08:30;9.05;;;3.88;;
47153;SDS011;32907;41.412;2.164;2023-05-02T02:10:58;5.97;;;3.47;;
47153;SDS011;32907;41.412;2.164;2023-05-02T02:13:33;5.13;;;3.92;;
47153;SDS011;32907;41.412;2.164;2023-05-02T02:16:06;5.55;;;3.78;;
47153;SDS011;32907;41.412;2.164;2023-05-02T02:18:39;6.95;;;3.60;;
47153;SDS011;32907;41.412;2.164;2023-05-02T02:21:11;5.70;;;3.92;;
47153;SDS011;32907;41.412;2.164;2023-05-02T02:23:43;6.43;;;3.60;;
47153;SDS011;32907;41.412;2.164;2023-05-02T02:26:16;5.30;;;3.40;;
47153;SDS011;32907;41.412;2.164;2023-05-02T02:28:48;4.35;;;3.28;;
47153;SDS011;32907;41.412;2.164;2023-05-02T02:31:16;7.72;;;3.50;;
47153;SDS011;32907;41.412;2.164;2023-05-02T02:33:44;7.00;;;3.78;;
47153;SDS011;32907;41.412;2.164;2023-05-02T02:39:01;6.97;;;3.60;;
47153;SDS011;32907;41.412;2.164;2023-05-02T02:41:39;5.35;;;3.30;;
47153;SDS011;32907;41.412;2.164;2023-05-02T02:50:07;6.00;;;3.15;;
47153;SDS011;32907;41.412;2.164;2023-05-02T03:00:41;6.25;;;3.75;;
47153;SDS011;32907;41.412;2.164;2023-05-02T03:03:09;4.65;;;3.25;;
47153;SDS011;32907;41.412;2.164;2023-05-02T03:05:43;4.82;;;3.50;;
47153;SDS011;32907;41.412;2.164;2023-05-02T03:08:13;6.75;;;3.63;;
47153;SDS011;32907;41.412;2.164;2023-05-02T03:10:41;4.72;;;3.33;;
47153;SDS011;32907;41.412;2.164;2023-05-02T03:13:10;6.70;;;3.90;;
47153;SDS011;32907;41.412;2.164;2023-05-02T03:20:54;6.28;;;3.70;;
47153;SDS011;32907;41.412;2.164;2023-05-02T03:23:23;6.28;;;4.20;;
47153;SDS011;32907;41.412;2.164;2023-05-02T03:25:53;7.85;;;3.80;;
47153;SDS011;32907;41.412;2.164;2023-05-02T03:28:25;6.53;;;4.22;;
47153;SDS011;32907;41.412;2.164;2023-05-02T03:30:53;5.60;;;3.97;;
47153;SDS011;32907;41.412;2.164;2023-05-02T03:33:21;6.07;;;3.97;;
47153;SDS011;32907;41.412;2.164;2023-05-02T03:35:49;6.30;;;4.30;;
47153;SDS011;32907;41.412;2.164;2023-05-02T03:38:17;6.05;;;4.03;;
47153;SDS011;32907;41.412;2.164;2023-05-02T03:40:48;6.57;;;3.83;;
47153;SDS011;32907;41.412;2.164;2023-05-02T03:43:17;6.10;;;4.30;;
47153;SDS011;32907;41.412;2.164;2023-05-02T03:45:45;5.47;;;4.00;;
47153;SDS011;32907;41.412;2.164;2023-05-02T03:48:15;7.82;;;4.18;;
47153;SDS011;32907;41.412;2.164;2023-05-02T03:50:43;7.10;;;4.00;;
47153;SDS011;32907;41.412;2.164;2023-05-02T03:53:11;7.45;;;4.40;;
47153;SDS011;32907;41.412;2.164;2023-05-02T03:55:48;7.70;;;4.38;;
47153;SDS011;32907;41.412;2.164;2023-05-02T03:58:24;4.55;;;3.33;;
47153;SDS011;32907;41.412;2.164;2023-05-02T04:00:53;5.05;;;3.05;;
47153;SDS011;32907;41.412;2.164;2023-05-02T04:03:22;4.53;;;3.10;;
47153;SDS011;32907;41.412;2.164;2023-05-02T04:05:51;5.85;;;3.25;;
47153;SDS011;32907;41.412;2.164;2023-05-02T04:08:18;4.88;;;3.70;;
47153;SDS011;32907;41.412;2.164;2023-05-02T04:10:46;4.85;;;3.50;;
47153;SDS011;32907;41.412;2.164;2023-05-02T04:13:18;5.80;;;3.90;;
47153;SDS011;32907;41.412;2.164;2023-05-02T04:15:49;5.38;;;3.42;;
47153;SDS011;32907;41.412;2.164;2023-05-02T04:18:20;5.95;;;3.75;;
47153;SDS011;32907;41.412;2.164;2023-05-02T04:20:49;5.10;;;3.70;;
47153;SDS011;32907;41.412;2.164;2023-05-02T04:23:19;7.53;;;3.97;;
47153;SDS011;32907;41.412;2.164;2023-05-02T04:25:55;7.90;;;3.85;;
47153;SDS011;32907;41.412;2.164;2023-05-02T04:28:33;7.10;;;3.53;;
47153;SDS011;32907;41.412;2.164;2023-05-02T04:31:02;5.60;;;3.20;;
47153;SDS011;32907;41.412;2.164;2023-05-02T04:33:31;4.90;;;3.00;;
47153;SDS011;32907;41.412;2.164;2023-05-02T04:35:59;5.18;;;3.35;;
47153;SDS011;32907;41.412;2.164;2023-05-02T04:38:27;5.32;;;3.47;;
47153;SDS011;32907;41.412;2.164;2023-05-02T04:40:55;6.43;;;3.42;;
47153;SDS011;32907;41.412;2.164;2023-05-02T04:43:31;6.55;;;3.53;;
47153;SDS011;32907;41.412;2.164;2023-05-02T04:46:01;4.28;;;3.10;;
47153;SDS011;32907;41.412;2.164;2023-05-02T04:48:35;5.28;;;3.20;;
47153;SDS011;32907;41.412;2.164;2023-05-02T04:51:03;5.75;;;3.42;;
47153;SDS011;32907;41.412;2.164;2023-05-02T04:53:31;6.13;;;3.40;;
47153;SDS011;32907;41.412;2.164;2023-05-02T04:55:59;4.43;;;3.05;;
47153;SDS011;32907;41.412;2.164;2023-05-02T04:58:28;6.43;;;3.78;;
47153;SDS011;32907;41.412;2.164;2023-05-02T05:01:01;6.70;;;3.50;;
47153;SDS011;32907;41.412;2.164;2023-05-02T05:03:28;6.35;;;3.30;;
47153;SDS011;32907;41.412;2.164;2023-05-02T05:05:57;5.80;;;3.35;;
47153;SDS011;32907;41.412;2.164;2023-05-02T05:08:26;8.00;;;3.33;;
47153;SDS011;32907;41.412;2.164;2023-05-02T05:10:55;6.68;;;3.78;;
47153;SDS011;32907;41.412;2.164;2023-05-02T05:13:25;6.22;;;3.53;;
47153;SDS011;32907;41.412;2.164;2023-05-02T05:15:53;6.50;;;3.78;;
47153;SDS011;32907;41.412;2.164;2023-05-02T05:18:25;4.88;;;2.72;;
47153;SDS011;32907;41.412;2.164;2023-05-02T05:20:54;13.43;;;5.35;;
47153;SDS011;32907;41.412;2.164;2023-05-02T05:23:22;18.40;;;6.97;;
47153;SDS011;32907;41.412;2.164;2023-05-02T05:25:50;17.05;;;5.88;;
47153;SDS011;32907;41.412;2.164;2023-05-02T05:28:18;23.92;;;7.85;;
47153;SDS011;32907;41.412;2.164;2023-05-02T05:30:46;16.95;;;6.93;;
47153;SDS011;32907;41.412;2.164;2023-05-02T05:33:19;14.77;;;5.80;;
47153;SDS011;32907;41.412;2.164;2023-05-02T05:35:48;14.43;;;5.95;;
47153;SDS011;32907;41.412;2.164;2023-05-02T05:38:16;10.10;;;4.53;;
47153;SDS011;32907;41.412;2.164;2023-05-02T05:40:47;10.05;;;5.18;;
47153;SDS011;32907;41.412;2.164;2023-05-02T05:43:17;10.88;;;5.32;;
47153;SDS011;32907;41.412;2.164;2023-05-02T05:45:45;7.18;;;4.20;;
47153;SDS011;32907;41.412;2.164;2023-05-02T05:48:13;7.40;;;4.65;;
47153;SDS011;32907;41.412;2.164;2023-05-02T05:50:44;8.63;;;4.88;;
47153;SDS011;32907;41.412;2.164;2023-05-02T05:53:13;9.75;;;4.78;;
47153;SDS011;32907;41.412;2.164;2023-05-02T05:55:42;7.13;;;4.53;;
47153;SDS011;32907;41.412;2.164;2023-05-02T05:58:10;8.65;;;4.78;;
47153;SDS011;32907;41.412;2.164;2023-05-02T06:00:39;9.23;;;4.15;;
47153;SDS011;32907;41.412;2.164;2023-05-02T06:03:08;7.50;;;4.47;;
47153;SDS011;32907;41.412;2.164;2023-05-02T06:05:37;6.20;;;4.22;;
47153;SDS011;32907;41.412;2.164;2023-05-02T06:08:05;9.10;;;4.13;;
47153;SDS011;32907;41.412;2.164;2023-05-02T06:10:33;6.80;;;4.10;;
47153;SDS011;32907;41.412;2.164;2023-05-02T06:13:01;7.57;;;4.55;;
47153;SDS011;32907;41.412;2.164;2023-05-02T06:15:33;7.75;;;3.97;;
47153;SDS011;32907;41.412;2.164;2023-05-02T06:18:05;8.43;;;4.97;;
47153;SDS011;32907;41.412;2.164;2023-05-02T06:20:34;8.30;;;4.38;;
47153;SDS011;32907;41.412;2.164;2023-05-02T06:23:03;8.45;;;5.13;;
47153;SDS011;32907;41.412;2.164;2023-05-02T06:25:31;10.93;;;5.80;;
47153;SDS011;32907;41.412;2.164;2023-05-02T06:28:00;8.50;;;5.18;;
47153;SDS011;32907;41.412;2.164;2023-05-02T06:30:28;9.45;;;5.55;;
47153;SDS011;32907;41.412;2.164;2023-05-02T06:32:55;11.38;;;5.68;;
47153;SDS011;32907;41.412;2.164;2023-05-02T06:35:23;11.48;;;5.45;;
47153;SDS011;32907;41.412;2.164;2023-05-02T06:37:51;8.68;;;5.10;;
47153;SDS011;32907;41.412;2.164;2023-05-02T06:40:19;7.43;;;4.97;;
47153;SDS011;32907;41.412;2.164;2023-05-02T06:42:47;9.20;;;4.93;;
47153;SDS011;32907;41.412;2.164;2023-05-02T06:45:15;10.02;;;5.05;;
47153;SDS011;32907;41.412;2.164;2023-05-02T06:47:43;8.18;;;4.13;;
47153;SDS011;32907;41.412;2.164;2023-05-02T06:50:10;9.20;;;5.13;;
47153;SDS011;32907;41.412;2.164;2023-05-02T06:52:38;6.05;;;4.32;;
47153;SDS011;32907;41.412;2.164;2023-05-02T06:55:06;6.18;;;4.07;;
47153;SDS011;32907;41.412;2.164;2023-05-02T06:57:34;7.88;;;3.63;;
47153;SDS011;32907;41.412;2.164;2023-05-02T07:00:02;6.30;;;3.78;;
47153;SDS011;32907;41.412;2.164;2023-05-02T07:02:31;6.53;;;3.67;;
47153;SDS011;32907;41.412;2.164;2023-05-02T07:04:59;6.22;;;3.63;;
47153;SDS011;32907;41.412;2.164;2023-05-02T07:07:27;7.32;;;3.67;;
47153;SDS011;32907;41.412;2.164;2023-05-02T07:09:54;8.00;;;4.05;;
47153;SDS011;32907;41.412;2.164;2023-05-02T07:12:22;10.40;;;4.78;;
47153;SDS011;32907;41.412;2.164;2023-05-02T07:14:50;9.23;;;5.20;;
47153;SDS011;32907;41.412;2.164;2023-05-02T07:17:19;17.15;;;6.38;;
47153;SDS011;32907;41.412;2.164;2023-05-02T07:19:47;11.07;;;6.97;;
47153;SDS011;32907;41.412;2.164;2023-05-02T07:22:15;17.27;;;6.78;;
47153;SDS011;32907;41.412;2.164;2023-05-02T07:24:42;15.48;;;6.18;;
47153;SDS011;32907;41.412;2.164;2023-05-02T07:27:11;9.02;;;4.93;;
47153;SDS011;32907;41.412;2.164;2023-05-02T07:29:39;8.73;;;5.05;;
47153;SDS011;32907;41.412;2.164;2023-05-02T07:32:09;7.22;;;4.50;;
47153;SDS011;32907;41.412;2.164;2023-05-02T07:34:37;8.73;;;4.78;;
47153;SDS011;32907;41.412;2.164;2023-05-02T07:37:05;7.13;;;4.45;;
47153;SDS011;32907;41.412;2.164;2023-05-02T07:39:33;13.70;;;4.85;;
47153;SDS011;32907;41.412;2.164;2023-05-02T07:42:01;7.95;;;4.40;;
47153;SDS011;32907;41.412;2.164;2023-05-02T07:44:31;9.13;;;4.15;;
47153;SDS011;32907;41.412;2.164;2023-05-02T07:47:01;8.60;;;3.72;;
47153;SDS011;32907;41.412;2.164;2023-05-02T07:49:29;10.30;;;3.83;;
47153;SDS011;32907;41.412;2.164;2023-05-02T07:51:57;7.38;;;3.33;;
47153;SDS011;32907;41.412;2.164;2023-05-02T07:54:25;6.13;;;3.40;;
47153;SDS011;32907;41.412;2.164;2023-05-02T07:56:53;7.80;;;3.85;;
47153;SDS011;32907;41.412;2.164;2023-05-02T07:59:24;8.75;;;4.32;;
47153;SDS011;32907;41.412;2.164;2023-05-02T08:01:52;8.38;;;3.88;;
47153;SDS011;32907;41.412;2.164;2023-05-02T08:04:20;9.90;;;3.78;;
47153;SDS011;32907;41.412;2.164;2023-05-02T08:06:49;9.43;;;3.60;;
47153;SDS011;32907;41.412;2.164;2023-05-02T08:09:17;7.75;;;3.85;;
47153;SDS011;32907;41.412;2.164;2023-05-02T08:11:45;9.52;;;4.10;;
47153;SDS011;32907;41.412;2.164;2023-05-02T08:14:14;10.38;;;3.50;;
47153;SDS011;32907;41.412;2.164;2023-05-02T08:16:42;7.55;;;3.45;;
47153;SDS011;32907;41.412;2.164;2023-05-02T08:19:12;11.77;;;3.80;;
47153;SDS011;32907;41.412;2.164;2023-05-02T08:21:41;6.47;;;3.40;;
47153;SDS011;32907;41.412;2.164;2023-05-02T08:24:09;10.65;;;3.90;;
47153;SDS011;32907;41.412;2.164;2023-05-02T08:26:37;10.80;;;3.60;;
47153;SDS011;32907;41.412;2.164;2023-05-02T08:29:04;11.55;;;4.15;;
47153;SDS011;32907;41.412;2.164;2023-05-02T08:31:32;13.93;;;4.50;;
47153;SDS011;32907;41.412;2.164;2023-05-02T08:34:00;14.35;;;4.10;;
47153;SDS011;32907;41.412;2.164;2023-05-02T08:36:28;12.75;;;3.72;;
47153;SDS011;32907;41.412;2.164;2023-05-02T08:38:56;13.52;;;4.07;;
47153;SDS011;32907;41.412;2.164;2023-05-02T08:41:24;12.48;;;3.72;;
47153;SDS011;32907;41.412;2.164;2023-05-02T08:43:55;9.15;;;3.28;;
47153;SDS011;32907;41.412;2.164;2023-05-02T08:46:24;11.63;;;3.97;;
47153;SDS011;32907;41.412;2.164;2023-05-02T08:48:53;17.40;;;4.30;;
47153;SDS011;32907;41.412;2.164;2023-05-02T08:51:25;19.50;;;4.95;;
47153;SDS011;32907;41.412;2.164;2023-05-02T08:53:56;14.80;;;4.50;;
47153;SDS011;32907;41.412;2.164;2023-05-02T08:56:24;16.00;;;3.95;;
47153;SDS011;32907;41.412;2.164;2023-05-02T08:58:52;9.27;;;3.20;;
47153;SDS011;32907;41.412;2.164;2023-05-02T09:01:21;14.02;;;3.63;;
47153;SDS011;32907;41.412;2.164;2023-05-02T09:03:50;12.30;;;3.03;;
47153;SDS011;32907;41.412;2.164;2023-05-02T09:06:19;9.50;;;2.42;;
47153;SDS011;32907;41.412;2.164;2023-05-02T09:08:49;7.53;;;2.63;;
47153;SDS011;32907;41.412;2.164;2023-05-02T09:11:20;11.90;;;3.10;;
47153;SDS011;32907;41.412;2.164;2023-05-02T09:13:49;8.13;;;2.53;;
47153;SDS011;32907;41.412;2.164;2023-05-02T09:16:22;13.48;;;3.17;;
47153;SDS011;32907;41.412;2.164;2023-05-02T09:18:52;10.35;;;3.45;;
47153;SDS011;32907;41.412;2.164;2023-05-02T09:21:23;10.40;;;2.63;;
47153;SDS011;32907;41.412;2.164;2023-05-02T09:24:13;10.38;;;3.28;;
47153;SDS011;32907;41.412;2.164;2023-05-02T09:26:55;17.23;;;3.47;;
47153;SDS011;32907;41.412;2.164;2023-05-02T09:29:32;20.63;;;3.95;;
47153;SDS011;32907;41.412;2.164;2023-05-02T09:32:05;19.13;;;4.55;;
47153;SDS011;32907;41.412;2.164;2023-05-02T09:34:33;11.38;;;3.58;;
47153;SDS011;32907;41.412;2.164;2023-05-02T09:37:04;17.60;;;3.25;;
47153;SDS011;32907;41.412;2.164;2023-05-02T09:39:32;6.38;;;2.45;;
47153;SDS011;32907;41.412;2.164;2023-05-02T09:42:03;5.65;;;1.65;;
47153;SDS011;32907;41.412;2.164;2023-05-02T09:44:40;5.32;;;1.65;;
47153;SDS011;32907;41.412;2.164;2023-05-02T09:47:09;9.75;;;2.47;;
47153;SDS011;32907;41.412;2.164;2023-05-02T09:52:16;7.35;;;3.17;;
47153;SDS011;32907;41.412;2.164;2023-05-02T09:54:46;5.38;;;1.77;;
47153;SDS011;32907;41.412;2.164;2023-05-02T09:57:16;9.10;;;2.47;;
47153;SDS011;32907;41.412;2.164;2023-05-02T09:59:54;7.72;;;2.40;;
47153;SDS011;32907;41.412;2.164;2023-05-02T10:02:23;11.20;;;3.03;;
47153;SDS011;32907;41.412;2.164;2023-05-02T10:04:52;14.30;;;2.70;;
47153;SDS011;32907;41.412;2.164;2023-05-02T10:07:23;7.80;;;2.67;;
47153;SDS011;32907;41.412;2.164;2023-05-02T10:09:53;14.30;;;3.50;;
47153;SDS011;32907;41.412;2.164;2023-05-02T10:12:25;9.60;;;3.00;;
47153;SDS011;32907;41.412;2.164;2023-05-02T10:14:56;8.45;;;3.10;;
47153;SDS011;32907;41.412;2.164;2023-05-02T10:17:30;14.15;;;5.00;;
47153;SDS011;32907;41.412;2.164;2023-05-02T10:20:04;17.00;;;9.20;;
47153;SDS011;32907;41.412;2.164;2023-05-02T10:22:33;22.83;;;11.68;;
47153;SDS011;32907;41.412;2.164;2023-05-02T10:25:03;21.05;;;11.65;;
47153;SDS011;32907;41.412;2.164;2023-05-02T10:27:32;16.10;;;7.05;;
47153;SDS011;32907;41.412;2.164;2023-05-02T10:30:00;11.80;;;5.80;;
47153;SDS011;32907;41.412;2.164;2023-05-02T10:32:33;9.75;;;4.70;;
47153;SDS011;32907;41.412;2.164;2023-05-02T10:35:04;9.02;;;4.40;;
47153;SDS011;32907;41.412;2.164;2023-05-02T10:37:34;9.38;;;4.05;;
47153;SDS011;32907;41.412;2.164;2023-05-02T10:40:03;9.00;;;4.25;;
47153;SDS011;32907;41.412;2.164;2023-05-02T10:42:34;8.63;;;3.90;;
47153;SDS011;32907;41.412;2.164;2023-05-02T10:45:52;7.90;;;3.55;;
47153;SDS011;32907;41.412;2.164;2023-05-02T10:48:16;14.85;;;4.50;;
47153;SDS011;32907;41.412;2.164;2023-05-02T10:51:00;12.77;;;4.00;;
47153;SDS011;32907;41.412;2.164;2023-05-02T10:53:32;24.90;;;8.70;;
47153;SDS011;32907;41.412;2.164;2023-05-02T10:58:42;15.40;;;7.13;;
47153;SDS011;32907;41.412;2.164;2023-05-02T11:03:56;7.80;;;5.68;;
47153;SDS011;32907;41.412;2.164;2023-05-02T11:06:25;8.32;;;4.43;;
47153;SDS011;32907;41.412;2.164;2023-05-02T11:09:33;11.75;;;5.55;;
47153;SDS011;32907;41.412;2.164;2023-05-02T11:11:55;13.30;;;6.95;;
47153;SDS011;32907;41.412;2.164;2023-05-02T11:24:46;6.07;;;3.00;;
47153;SDS011;32907;41.412;2.164;2023-05-02T11:30:04;4.43;;;2.13;;
47153;SDS011;32907;41.412;2.164;2023-05-02T11:35:20;7.93;;;1.90;;
47153;SDS011;32907;41.412;2.164;2023-05-02T11:37:53;3.50;;;1.90;;
47153;SDS011;32907;41.412;2.164;2023-05-02T11:40:24;3.75;;;2.25;;
47153;SDS011;32907;41.412;2.164;2023-05-02T11:42:54;4.25;;;1.83;;
47153;SDS011;32907;41.412;2.164;2023-05-02T11:45:31;6.70;;;1.90;;
47153;SDS011;32907;41.412;2.164;2023-05-02T11:48:01;3.50;;;1.88;;
47153;SDS011;32907;41.412;2.164;2023-05-02T11:50:32;6.55;;;1.90;;
47153;SDS011;32907;41.412;2.164;2023-05-02T11:53:00;3.90;;;2.00;;
47153;SDS011;32907;41.412;2.164;2023-05-02T11:55:28;6.38;;;2.00;;
47153;SDS011;32907;41.412;2.164;2023-05-02T11:57:56;5.95;;;2.45;;
47153;SDS011;32907;41.412;2.164;2023-05-02T12:00:26;9.18;;;4.15;;
47153;SDS011;32907;41.412;2.164;2023-05-02T12:02:54;11.77;;;6.70;;
47153;SDS011;32907;41.412;2.164;2023-05-02T12:05:26;11.23;;;5.85;;
47153;SDS011;32907;41.412;2.164;2023-05-02T12:07:58;8.70;;;4.40;;
47153;SDS011;32907;41.412;2.164;2023-05-02T12:10:36;7.22;;;3.53;;
47153;SDS011;32907;41.412;2.164;2023-05-02T12:13:06;7.50;;;2.95;;
47153;SDS011;32907;41.412;2.164;2023-05-02T12:15:37;6.05;;;2.88;;
47153;SDS011;32907;41.412;2.164;2023-05-02T12:18:05;5.13;;;2.72;;
47153;SDS011;32907;41.412;2.164;2023-05-02T12:20:35;5.35;;;2.78;;
47153;SDS011;32907;41.412;2.164;2023-05-02T12:23:05;3.55;;;1.90;;
47153;SDS011;32907;41.412;2.164;2023-05-02T12:25:40;3.17;;;2.20;;
47153;SDS011;32907;41.412;2.164;2023-05-02T12:28:09;5.32;;;2.35;;
47153;SDS011;32907;41.412;2.164;2023-05-02T12:30:38;5.50;;;2.22;;
47153;SDS011;32907;41.412;2.164;2023-05-02T12:33:07;3.83;;;2.22;;
47153;SDS011;32907;41.412;2.164;2023-05-02T12:35:36;7.28;;;2.58;;
47153;SDS011;32907;41.412;2.164;2023-05-02T12:38:07;6.13;;;2.92;;
47153;SDS011;32907;41.412;2.164;2023-05-02T12:40:58;4.78;;;2.50;;
47153;SDS011;32907;41.412;2.164;2023-05-02T12:43:41;3.60;;;2.20;;
47153;SDS011;32907;41.412;2.164;2023-05-02T12:46:13;4.90;;;2.10;;
47153;SDS011;32907;41.412;2.164;2023-05-02T12:49:00;4.25;;;2.35;;
47153;SDS011;32907;41.412;2.164;2023-05-02T12:51:41;6.95;;;2.72;;
47153;SDS011;32907;41.412;2.164;2023-05-02T12:54:27;4.70;;;2.53;;
47153;SDS011;32907;41.412;2.164;2023-05-02T12:56:59;2.83;;;1.67;;
47153;SDS011;32907;41.412;2.164;2023-05-02T12:59:32;5.80;;;2.10;;
47153;SDS011;32907;41.412;2.164;2023-05-02T13:02:00;4.50;;;2.03;;
47153;SDS011;32907;41.412;2.164;2023-05-02T13:04:38;5.03;;;2.10;;
47153;SDS011;32907;41.412;2.164;2023-05-02T13:07:09;3.10;;;1.90;;
47153;SDS011;32907;41.412;2.164;2023-05-02T13:09:40;3.72;;;1.75;;
47153;SDS011;32907;41.412;2.164;2023-05-02T13:12:11;3.30;;;1.55;;
47153;SDS011;32907;41.412;2.164;2023-05-02T13:14:39;2.95;;;1.48;;
47153;SDS011;32907;41.412;2.164;2023-05-02T13:17:07;2.85;;;1.23;;
47153;SDS011;32907;41.412;2.164;2023-05-02T13:19:35;3.47;;;1.40;;
47153;SDS011;32907;41.412;2.164;2023-05-02T13:22:06;3.83;;;1.20;;
47153;SDS011;32907;41.412;2.164;2023-05-02T13:24:35;2.17;;;1.20;;
47153;SDS011;32907;41.412;2.164;2023-05-02T13:27:03;3.42;;;1.35;;
47153;SDS011;32907;41.412;2.164;2023-05-02T13:29:31;3.05;;;1.30;;
47153;SDS011;32907;41.412;2.164;2023-05-02T13:31:59;4.50;;;1.35;;
47153;SDS011;32907;41.412;2.164;2023-05-02T13:34:27;2.70;;;1.48;;
47153;SDS011;32907;41.412;2.164;2023-05-02T13:36:55;5.20;;;1.60;;
47153;SDS011;32907;41.412;2.164;2023-05-02T13:39:22;3.95;;;1.38;;
47153;SDS011;32907;41.412;2.164;2023-05-02T13:41:50;2.67;;;1.38;;
47153;SDS011;32907;41.412;2.164;2023-05-02T13:44:18;2.80;;;1.30;;
47153;SDS011;32907;41.412;2.164;2023-05-02T13:46:46;2.33;;;1.23;;
47153;SDS011;32907;41.412;2.164;2023-05-02T13:49:14;2.85;;;1.33;;
47153;SDS011;32907;41.412;2.164;2023-05-02T13:51:41;3.97;;;1.48;;
47153;SDS011;32907;41.412;2.164;2023-05-02T13:54:09;5.03;;;1.25;;
47153;SDS011;32907;41.412;2.164;2023-05-02T13:56:38;3.13;;;1.50;;
47153;SDS011;32907;41.412;2.164;2023-05-02T13:59:06;4.88;;;1.60;;
47153;SDS011;32907;41.412;2.164;2023-05-02T14:01:37;5.05;;;1.70;;
47153;SDS011;32907;41.412;2.164;2023-05-02T14:04:06;6.20;;;1.40;;
47153;SDS011;32907;41.412;2.164;2023-05-02T14:06:35;3.67;;;1.15;;
47153;SDS011;32907;41.412;2.164;2023-05-02T14:09:04;3.47;;;1.40;;
47153;SDS011;32907;41.412;2.164;2023-05-02T14:11:33;3.63;;;1.40;;
47153;SDS011;32907;41.412;2.164;2023-05-02T14:14:01;5.18;;;1.85;;
47153;SDS011;32907;41.412;2.164;2023-05-02T14:16:29;3.38;;;1.60;;
47153;SDS011;32907;41.412;2.164;2023-05-02T14:18:57;6.75;;;1.60;;
47153;SDS011;32907;41.412;2.164;2023-05-02T14:21:25;5.70;;;1.73;;
47153;SDS011;32907;41.412;2.164;2023-05-02T14:23:53;6.22;;;1.40;;
47153;SDS011;32907;41.412;2.164;2023-05-02T14:26:21;5.25;;;1.67;;
47153;SDS011;32907;41.412;2.164;2023-05-02T14:28:48;3.75;;;1.40;;
47153;SDS011;32907;41.412;2.164;2023-05-02T14:31:16;3.42;;;1.55;;
47153;SDS011;32907;41.412;2.164;2023-05-02T14:33:44;6.63;;;1.90;;
47153;SDS011;32907;41.412;2.164;2023-05-02T14:36:12;3.95;;;1.48;;
47153;SDS011;32907;41.412;2.164;2023-05-02T14:38:40;4.28;;;1.58;;
47153;SDS011;32907;41.412;2.164;2023-05-02T14:41:08;5.45;;;1.58;;
47153;SDS011;32907;41.412;2.164;2023-05-02T14:43:36;3.60;;;1.40;;
47153;SDS011;32907;41.412;2.164;2023-05-02T14:46:05;4.13;;;1.50;;
47153;SDS011;32907;41.412;2.164;2023-05-02T14:48:33;3.10;;;1.38;;
47153;SDS011;32907;41.412;2.164;2023-05-02T14:51:04;4.50;;;1.50;;
47153;SDS011;32907;41.412;2.164;2023-05-02T14:53:32;3.60;;;1.23;;
47153;SDS011;32907;41.412;2.164;2023-05-02T14:56:00;2.97;;;1.40;;
47153;SDS011;32907;41.412;2.164;2023-05-02T14:58:28;4.63;;;1.30;;
47153;SDS011;32907;41.412;2.164;2023-05-02T15:00:56;4.25;;;1.50;;
47153;SDS011;32907;41.412;2.164;2023-05-02T15:03:24;3.65;;;1.58;;
47153;SDS011;32907;41.412;2.164;2023-05-02T15:05:52;4.03;;;1.30;;
47153;SDS011;32907;41.412;2.164;2023-05-02T15:08:19;4.53;;;1.40;;
47153;SDS011;32907;41.412;2.164;2023-05-02T15:10:47;4.35;;;1.17;;
47153;SDS011;32907;41.412;2.164;2023-05-02T15:13:15;2.97;;;1.27;;
47153;SDS011;32907;41.412;2.164;2023-05-02T15:15:45;4.43;;;1.20;;
47153;SDS011;32907;41.412;2.164;2023-05-02T15:18:13;4.53;;;1.20;;
47153;SDS011;32907;41.412;2.164;2023-05-02T15:20:41;2.75;;;1.10;;
47153;SDS011;32907;41.412;2.164;2023-05-02T15:23:10;4.00;;;1.23;;
47153;SDS011;32907;41.412;2.164;2023-05-02T15:25:38;3.47;;;1.20;;
47153;SDS011;32907;41.412;2.164;2023-05-02T15:28:06;1.90;;;0.93;;
47153;SDS011;32907;41.412;2.164;2023-05-02T15:30:34;5.05;;;1.00;;
47153;SDS011;32907;41.412;2.164;2023-05-02T15:33:02;6.00;;;1.40;;
47153;SDS011;32907;41.412;2.164;2023-05-02T15:35:30;3.45;;;1.25;;
47153;SDS011;32907;41.412;2.164;2023-05-02T15:37:58;5.35;;;1.17;;
47153;SDS011;32907;41.412;2.164;2023-05-02T15:40:26;4.32;;;1.35;;
47153;SDS011;32907;41.412;2.164;2023-05-02T15:42:54;4.38;;;1.55;;
47153;SDS011;32907;41.412;2.164;2023-05-02T15:45:22;4.57;;;1.52;;
47153;SDS011;32907;41.412;2.164;2023-05-02T15:47:51;6.60;;;1.30;;
47153;SDS011;32907;41.412;2.164;2023-05-02T15:50:19;3.50;;;1.10;;
47153;SDS011;32907;41.412;2.164;2023-05-02T15:52:47;6.47;;;1.75;;
47153;SDS011;32907;41.412;2.164;2023-05-02T15:55:15;4.68;;;1.33;;
47153;SDS011;32907;41.412;2.164;2023-05-02T15:57:43;3.67;;;1.17;;